Главная страница
METAR-TAF:

METAR-TAF

Аэропорты :

Маджуро, Маршалловы Острова

широта: 07-04N, долгота: 171-17E, высота над уровнем моря: 2 м

Текущие метеонаблюдения

Эта сводка был подготовлена 4 часа и 51 минут назад, в 21:52 UTC
Ветер 12 Узел от восточный
Температура 29°C
Влажность 79%
Давление 1009 hPa
Видимость: 24.1 км
небольшая облачность на высоте 1500 фута
Отдельные облака на высоте 5000 фута
Рассеянная облачность на высоте 12000 фута
Сплошная облачность на высоте 30000 фута

METAR: PKMJ 212152Z COR 08012KT 15SM FEW015 SCT050 BKN120 OVC300 29/25 A2980 RMK LAST

Время: 14:43 (02:43 UTC)

Прогноз

Эта сводка был подготовлена 3 часа и 16 минут назад, в 23:27 UTC
Прогноз действительный с 22-го 00 UTC до 22-го 24 UTC
Ветер 10 Узел от восточно-юго-восточный
Видимость: 10 км
небольшая облачность на высоте 1800 фута
Отдельные облака на высоте 5000 фута
Рассеянная облачность на высоте 14000 фута
ливни в окрестностях

TAF: PKMJ 212327Z 2200/2224 11010KT P6SM VCSH FEW018 SCT050 BKN140

Метеонаблюдения и прогнозы для более 4000 аэропортов (сводки METAR и TAF).

Имеющиеся станции представлены на карте желтыми и красными точками.

Чтобы увидеть название станции, наведите на нее мышь.

Затем щелкните, чтобы увидеть метеонаблюдения и метеопрогнозы.

Управление картой: чтобы увеличить масштаб, щелкните зеленые кнопки с черным крестиком; чтобы уменьшить масштаб, щелкните зеленую кнопку с тире; для просмотра соседних карт щелкайте зеленые стрелки.


METAR-TAF: